createdAt,value
2018-12-22T00:00:25.782Z,11.70
2018-12-22T00:02:54.125Z,11.60
2018-12-22T00:05:22.945Z,11.80
2018-12-22T00:07:51.168Z,11.70
2018-12-22T00:10:19.461Z,11.70
2018-12-22T00:12:47.624Z,11.70
2018-12-22T00:15:16.377Z,11.70
2018-12-22T00:17:44.561Z,11.80
2018-12-22T00:20:12.959Z,11.70
2018-12-22T00:22:41.481Z,11.70
2018-12-22T00:25:10.322Z,11.70
2018-12-22T00:27:38.811Z,11.70
2018-12-22T00:30:07.886Z,11.60
2018-12-22T00:32:36.177Z,11.50
2018-12-22T00:35:04.875Z,11.50
2018-12-22T00:37:33.122Z,11.50
2018-12-22T00:40:01.893Z,11.50
2018-12-22T00:42:30.180Z,11.50
2018-12-22T00:44:58.481Z,11.50
2018-12-22T00:47:27.362Z,11.50
2018-12-22T00:49:55.593Z,11.50
2018-12-22T00:52:23.818Z,11.40
2018-12-22T00:54:52.098Z,11.40
2018-12-22T00:57:20.517Z,11.40
2018-12-22T00:59:48.627Z,11.30
2018-12-22T01:02:17.263Z,11.30
2018-12-22T01:04:45.439Z,11.40
2018-12-22T01:07:13.631Z,11.30
2018-12-22T01:09:42.899Z,11.20
2018-12-22T01:12:11.199Z,11.10
2018-12-22T01:14:39.396Z,11.10
2018-12-22T01:17:07.844Z,11.20
2018-12-22T01:19:36.248Z,11.10
2018-12-22T01:22:04.540Z,11.10
2018-12-22T01:24:32.903Z,11.20
2018-12-22T01:27:01.157Z,11.30
2018-12-22T01:29:29.668Z,11.30
2018-12-22T01:31:57.913Z,11.30
2018-12-22T01:34:26.996Z,11.30
2018-12-22T01:36:55.513Z,11.30
2018-12-22T01:39:23.708Z,11.30
2018-12-22T01:41:51.930Z,11.30
2018-12-22T01:44:20.212Z,11.30
2018-12-22T01:46:48.532Z,11.30
2018-12-22T01:49:16.759Z,11.30
2018-12-22T01:51:45.098Z,11.30
2018-12-22T01:54:13.300Z,11.30
2018-12-22T01:56:41.624Z,11.30
2018-12-22T01:59:09.778Z,11.20
2018-12-22T02:01:37.994Z,11.30
2018-12-22T02:04:06.302Z,11.30
2018-12-22T02:06:34.732Z,11.30
2018-12-22T02:09:03.640Z,11.40
2018-12-22T02:11:31.823Z,11.40
2018-12-22T02:14:00.285Z,11.40
2018-12-22T02:16:28.493Z,11.40
2018-12-22T02:18:56.735Z,11.50
2018-12-22T02:21:24.968Z,11.50
2018-12-22T02:23:53.869Z,11.60
2018-12-22T02:26:22.144Z,11.60
2018-12-22T02:28:56.532Z,11.50
2018-12-22T02:31:20.635Z,11.40
2018-12-22T02:33:48.867Z,11.40
2018-12-22T02:36:17.130Z,11.50
2018-12-22T02:38:45.292Z,11.50
2018-12-22T02:41:13.605Z,11.40
2018-12-22T02:43:41.827Z,11.30
2018-12-22T02:48:44.822Z,11.30
2018-12-22T02:51:13.143Z,11.30
2018-12-22T02:53:41.310Z,11.40
2018-12-22T02:56:09.624Z,11.50
2018-12-22T02:58:37.858Z,11.50
2018-12-22T03:01:06.107Z,11.50
2018-12-22T03:03:34.387Z,11.50
2018-12-22T03:06:02.569Z,11.50
2018-12-22T03:08:30.837Z,11.50
2018-12-22T03:10:58.963Z,11.50
2018-12-22T03:13:27.209Z,11.50
2018-12-22T03:15:55.343Z,11.40
2018-12-22T03:18:23.647Z,11.50
2018-12-22T03:20:51.737Z,11.50
2018-12-22T03:23:20.021Z,11.40
2018-12-22T03:25:48.307Z,11.40
2018-12-22T03:28:16.418Z,11.30
2018-12-22T03:30:44.692Z,11.30
2018-12-22T03:33:12.997Z,11.40
2018-12-22T03:35:41.214Z,11.40
2018-12-22T03:38:09.376Z,11.30
2018-12-22T03:40:37.558Z,11.30
2018-12-22T03:43:05.840Z,11.20
2018-12-22T03:45:34.218Z,11.00
2018-12-22T03:48:03.443Z,10.80
2018-12-22T03:50:31.623Z,10.70
2018-12-22T03:53:00.535Z,10.70
2018-12-22T03:55:28.709Z,10.60
2018-12-22T03:57:56.963Z,10.50
2018-12-22T04:00:25.501Z,10.30
2018-12-22T04:02:53.895Z,10.30
2018-12-22T04:05:22.106Z,10.10
2018-12-22T04:07:50.255Z,10.00
2018-12-22T04:10:18.486Z,10.00
2018-12-22T04:12:46.791Z,9.90
2018-12-22T04:15:15.067Z,9.80
2018-12-22T04:17:43.238Z,9.70
2018-12-22T04:20:11.948Z,9.70
2018-12-22T04:22:40.260Z,9.60
2018-12-22T04:25:08.645Z,9.60
2018-12-22T04:27:36.918Z,9.50
2018-12-22T04:30:05.308Z,9.50
2018-12-22T04:32:33.438Z,9.40
2018-12-22T04:35:01.712Z,9.40
2018-12-22T04:37:29.903Z,9.30
2018-12-22T04:39:58.181Z,9.30
2018-12-22T04:42:26.633Z,9.30
2018-12-22T04:44:54.859Z,9.20
2018-12-22T04:47:23.345Z,9.20
2018-12-22T04:49:51.472Z,9.10
2018-12-22T04:52:19.679Z,9.10
2018-12-22T04:54:48.613Z,9.00
2018-12-22T04:57:16.753Z,9.00
2018-12-22T04:59:45.079Z,9.00
2018-12-22T05:02:13.284Z,9.00
2018-12-22T05:04:41.480Z,8.90
2018-12-22T05:07:09.683Z,8.90
2018-12-22T05:09:38.426Z,8.80
2018-12-22T05:12:06.696Z,8.80
2018-12-22T05:14:35.251Z,8.80
2018-12-22T05:17:03.434Z,8.70
2018-12-22T05:19:31.664Z,8.70
2018-12-22T05:21:59.900Z,8.70
2018-12-22T05:24:28.151Z,8.70
2018-12-22T05:26:56.400Z,8.70
2018-12-22T05:29:24.612Z,8.60
2018-12-22T05:31:53.061Z,8.60
2018-12-22T05:34:21.237Z,8.60
2018-12-22T05:36:49.616Z,8.60
2018-12-22T05:39:17.887Z,8.60
2018-12-22T05:41:46.177Z,8.60
2018-12-22T05:44:14.502Z,8.60
2018-12-22T05:46:42.719Z,8.60
2018-12-22T05:49:10.869Z,8.60
2018-12-22T05:51:39.043Z,8.60
2018-12-22T05:54:07.309Z,8.60
2018-12-22T05:56:35.735Z,8.60
2018-12-22T05:59:04.016Z,8.60
2018-12-22T06:01:32.505Z,8.60
2018-12-22T06:04:00.807Z,8.50
2018-12-22T06:06:29.069Z,8.50
2018-12-22T06:08:57.345Z,8.40
2018-12-22T06:11:25.588Z,8.40
2018-12-22T06:13:53.822Z,8.30
2018-12-22T06:16:21.948Z,8.30
2018-12-22T06:18:50.149Z,8.20
2018-12-22T06:21:18.404Z,8.20
2018-12-22T06:23:46.676Z,8.10
2018-12-22T06:26:14.945Z,8.10
2018-12-22T06:28:43.249Z,8.10
2018-12-22T06:31:11.494Z,8.10
2018-12-22T06:33:39.726Z,8.10
2018-12-22T06:36:08.490Z,8.00
2018-12-22T06:38:36.668Z,7.90
2018-12-22T06:41:05.548Z,7.90
2018-12-22T06:43:33.795Z,7.90
2018-12-22T06:46:02.136Z,7.90
2018-12-22T06:48:30.510Z,7.90
2018-12-22T06:50:58.890Z,8.00
2018-12-22T06:53:27.152Z,8.00
2018-12-22T06:55:56.169Z,8.00
2018-12-22T06:58:24.285Z,8.00
2018-12-22T07:00:53.059Z,7.90
2018-12-22T07:03:21.297Z,7.90
2018-12-22T07:05:49.629Z,7.90
2018-12-22T07:08:17.820Z,7.80
2018-12-22T07:10:46.019Z,7.90
2018-12-22T07:13:14.215Z,7.90
2018-12-22T07:15:42.425Z,7.90
2018-12-22T07:18:10.835Z,8.00
2018-12-22T07:20:39.030Z,7.90
2018-12-22T07:23:07.439Z,7.90
2018-12-22T07:25:35.793Z,7.90
2018-12-22T07:28:04.058Z,7.90
2018-12-22T07:30:32.310Z,7.90
2018-12-22T07:33:00.418Z,8.00
2018-12-22T07:35:28.599Z,8.10
2018-12-22T07:37:56.855Z,8.30
2018-12-22T07:40:25.070Z,8.40
2018-12-22T07:42:53.367Z,8.70
2018-12-22T07:45:21.601Z,8.70
2018-12-22T07:47:49.805Z,8.80
2018-12-22T07:50:18.116Z,8.80
2018-12-22T07:52:51.573Z,8.80
2018-12-22T07:55:16.560Z,8.70
2018-12-22T07:57:44.803Z,8.70
2018-12-22T08:00:13.071Z,8.60
2018-12-22T08:02:41.512Z,8.60
2018-12-22T08:05:09.747Z,8.60
2018-12-22T08:07:38.144Z,8.60
2018-12-22T08:10:07.036Z,8.60
2018-12-22T08:12:35.418Z,8.60
2018-12-22T08:15:03.813Z,8.60
2018-12-22T08:17:31.999Z,8.60
2018-12-22T08:20:00.347Z,8.70
2018-12-22T08:22:28.563Z,8.60
2018-12-22T08:24:56.868Z,8.70
2018-12-22T08:27:25.179Z,8.80
2018-12-22T08:29:53.441Z,8.80
2018-12-22T08:32:21.724Z,8.80
2018-12-22T08:34:49.992Z,8.80
2018-12-22T08:37:18.258Z,8.90
2018-12-22T08:39:46.583Z,8.90
2018-12-22T08:42:14.921Z,8.80
2018-12-22T08:44:43.230Z,8.90
2018-12-22T08:47:11.424Z,8.90
2018-12-22T08:49:39.672Z,9.10
2018-12-22T08:52:07.814Z,9.00
2018-12-22T08:54:36.188Z,9.20
2018-12-22T08:57:04.418Z,9.10
2018-12-22T08:59:32.746Z,9.10
2018-12-22T09:02:01.020Z,9.30
2018-12-22T09:04:29.243Z,9.50
2018-12-22T09:06:57.733Z,9.50
2018-12-22T09:09:25.971Z,9.20
2018-12-22T09:11:54.233Z,9.50
2018-12-22T09:14:22.458Z,9.60
2018-12-22T09:16:50.879Z,9.70
2018-12-22T09:19:19.078Z,9.30
2018-12-22T09:21:47.277Z,9.10
2018-12-22T09:24:16.208Z,9.00
2018-12-22T09:26:44.403Z,8.90
2018-12-22T09:29:12.735Z,8.80
2018-12-22T09:31:41.018Z,8.80
2018-12-22T09:34:13.240Z,8.80
2018-12-22T09:36:39.491Z,8.90
2018-12-22T09:39:08.302Z,8.90
2018-12-22T09:41:36.692Z,8.80
2018-12-22T09:44:04.998Z,8.60
2018-12-22T09:46:33.096Z,8.70
2018-12-22T09:49:01.353Z,8.60
2018-12-22T09:51:29.712Z,8.50
2018-12-22T09:53:58.409Z,8.50
2018-12-22T09:56:26.667Z,8.80
2018-12-22T09:58:54.926Z,9.00
2018-12-22T10:01:23.110Z,9.10
2018-12-22T10:03:51.244Z,9.40
2018-12-22T10:06:19.318Z,9.40
2018-12-22T10:08:47.536Z,9.40
2018-12-22T10:11:15.798Z,9.40
2018-12-22T10:13:43.974Z,9.50
2018-12-22T10:16:12.304Z,9.50
2018-12-22T10:18:40.701Z,9.40
2018-12-22T10:21:08.897Z,9.50
2018-12-22T10:23:37.344Z,9.60
2018-12-22T10:26:05.615Z,9.50
2018-12-22T10:28:33.896Z,9.30
2018-12-22T10:31:02.128Z,9.40
2018-12-22T10:33:30.352Z,9.40
2018-12-22T10:35:58.518Z,9.20
2018-12-22T10:38:26.797Z,9.30
2018-12-22T10:40:55.139Z,9.20
2018-12-22T10:43:23.257Z,8.90
2018-12-22T10:45:51.367Z,8.70
2018-12-22T10:48:19.687Z,8.60
2018-12-22T10:50:47.905Z,8.60
2018-12-22T10:53:16.151Z,8.60
2018-12-22T10:55:44.384Z,8.50
2018-12-22T10:58:12.824Z,8.50
2018-12-22T11:00:41.044Z,8.50
2018-12-22T11:03:09.147Z,8.50
2018-12-22T11:05:37.447Z,8.40
2018-12-22T11:08:05.702Z,8.30
2018-12-22T11:10:33.986Z,8.20
2018-12-22T11:13:02.530Z,8.20
2018-12-22T11:15:31.119Z,8.20
2018-12-22T11:17:59.291Z,8.20
2018-12-22T11:20:27.763Z,8.10
2018-12-22T11:22:55.901Z,8.10
2018-12-22T11:25:25.803Z,8.00
2018-12-22T11:27:54.115Z,8.00
2018-12-22T11:30:27.790Z,7.90
2018-12-22T11:32:56.089Z,7.90
2018-12-22T11:35:24.565Z,7.90
2018-12-22T11:37:52.823Z,8.00
2018-12-22T11:40:21.148Z,8.00
2018-12-22T11:42:49.916Z,7.90
2018-12-22T11:45:18.794Z,7.90
2018-12-22T11:47:53.023Z,7.90
2018-12-22T11:50:24.493Z,7.90
2018-12-22T11:52:52.651Z,7.90
2018-12-22T11:55:21.703Z,7.80
2018-12-22T11:57:50.102Z,7.70
2018-12-22T12:00:18.672Z,7.70
2018-12-22T12:02:47.017Z,7.60
2018-12-22T12:05:15.692Z,7.50
2018-12-22T12:07:44.025Z,7.40
2018-12-22T12:10:12.410Z,7.40
2018-12-22T12:12:40.720Z,7.40
2018-12-22T12:15:15.457Z,7.40
2018-12-22T12:18:02.734Z,7.30
2018-12-22T12:20:31.018Z,7.20
2018-12-22T12:22:59.236Z,7.20
2018-12-22T12:25:27.672Z,7.20
2018-12-22T12:27:55.920Z,7.10
2018-12-22T12:30:24.272Z,7.20
2018-12-22T12:32:52.492Z,7.10
2018-12-22T12:35:20.801Z,7.10
2018-12-22T12:37:48.942Z,7.10
2018-12-22T12:40:18.458Z,7.00
2018-12-22T12:42:46.924Z,6.90
2018-12-22T12:45:15.191Z,6.90
2018-12-22T12:47:44.563Z,6.90
2018-12-22T12:50:15.385Z,6.80
2018-12-22T12:52:43.730Z,6.90
2018-12-22T12:55:12.119Z,6.90
2018-12-22T12:57:40.420Z,6.90
2018-12-22T13:00:11.132Z,6.80
2018-12-22T13:02:39.421Z,6.70
2018-12-22T13:05:08.654Z,6.70
2018-12-22T13:07:37.280Z,6.70
2018-12-22T13:10:07.779Z,6.70
2018-12-22T13:12:56.725Z,6.60
2018-12-22T13:15:25.049Z,6.60
2018-12-22T13:17:53.361Z,6.60
2018-12-22T13:20:21.877Z,6.50
2018-12-22T13:22:50.428Z,6.40
2018-12-22T13:25:18.764Z,6.50
2018-12-22T13:27:47.053Z,6.60
2018-12-22T13:30:15.321Z,6.70
2018-12-22T13:32:43.690Z,6.70
2018-12-22T13:35:12.158Z,6.60
2018-12-22T13:37:40.891Z,6.60
2018-12-22T13:40:10.359Z,6.60
2018-12-22T13:42:38.755Z,6.60
2018-12-22T13:45:07.999Z,6.70
2018-12-22T13:47:36.643Z,6.70
2018-12-22T13:50:06.834Z,6.60
2018-12-22T13:52:35.717Z,6.60
2018-12-22T13:55:04.461Z,6.60
2018-12-22T13:57:32.839Z,6.60
2018-12-22T14:00:01.356Z,6.70
2018-12-22T14:02:30.960Z,6.60
2018-12-22T14:04:59.235Z,6.60
2018-12-22T14:07:27.541Z,6.60
2018-12-22T14:09:55.866Z,6.50
2018-12-22T14:12:25.411Z,6.50
2018-12-22T14:14:54.234Z,6.60
2018-12-22T14:17:29.173Z,6.50
2018-12-22T14:20:02.387Z,6.50
2018-12-22T14:22:33.072Z,6.50
2018-12-22T14:25:02.154Z,6.50
2018-12-22T14:27:32.807Z,6.50
2018-12-22T14:30:01.158Z,6.50
2018-12-22T14:32:29.461Z,6.60
2018-12-22T14:35:06.164Z,6.60
2018-12-22T14:37:34.576Z,6.60
2018-12-22T14:40:03.335Z,6.50
2018-12-22T14:42:31.784Z,6.60
2018-12-22T14:45:00.269Z,6.60
2018-12-22T14:47:28.679Z,6.50
2018-12-22T14:49:56.985Z,6.50
2018-12-22T14:52:25.332Z,6.60
2018-12-22T14:54:53.702Z,6.60
2018-12-22T14:57:22.115Z,6.60
2018-12-22T14:59:50.664Z,6.60
2018-12-22T15:02:19.059Z,6.60
2018-12-22T15:04:48.863Z,6.60
2018-12-22T15:07:18.802Z,6.60
2018-12-22T15:09:48.507Z,6.60
2018-12-22T15:12:17.672Z,6.60
2018-12-22T15:14:48.731Z,6.60
2018-12-22T15:17:17.912Z,6.60
2018-12-22T15:19:46.402Z,6.60
2018-12-22T15:22:19.171Z,6.60
2018-12-22T15:24:48.298Z,6.50
2018-12-22T15:27:18.824Z,6.50
2018-12-22T15:29:47.571Z,6.50
2018-12-22T15:32:16.191Z,6.60
2018-12-22T15:34:45.138Z,6.60
2018-12-22T15:37:14.919Z,6.60
2018-12-22T15:39:44.840Z,6.50
2018-12-22T15:42:13.989Z,6.50
2018-12-22T15:44:43.472Z,6.50
2018-12-22T15:47:13.920Z,6.50
2018-12-22T15:49:50.391Z,6.50
2018-12-22T15:52:19.390Z,6.60
2018-12-22T15:54:48.482Z,6.50
2018-12-22T15:57:17.236Z,6.50
2018-12-22T15:59:45.449Z,6.50
2018-12-22T16:02:14.770Z,6.60
2018-12-22T16:04:44.361Z,6.50
2018-12-22T16:07:12.931Z,6.60
2018-12-22T16:09:41.965Z,6.60
2018-12-22T16:12:11.916Z,6.50
2018-12-22T16:14:40.812Z,6.50
2018-12-22T16:17:09.145Z,6.50
2018-12-22T16:19:37.634Z,6.50
2018-12-22T16:22:07.269Z,6.50
2018-12-22T16:24:35.754Z,6.40
2018-12-22T16:27:04.322Z,6.40
2018-12-22T16:29:38.083Z,6.40
2018-12-22T16:32:06.445Z,6.40
2018-12-22T16:34:35.207Z,6.30
2018-12-22T16:37:05.156Z,6.30
2018-12-22T16:39:34.157Z,6.30
2018-12-22T16:42:03.430Z,6.30
2018-12-22T16:44:32.448Z,6.30
2018-12-22T16:47:01.184Z,6.30
2018-12-22T16:49:29.549Z,6.30
2018-12-22T16:51:57.932Z,6.30
2018-12-22T16:54:26.207Z,6.30
2018-12-22T16:56:54.403Z,6.30
2018-12-22T16:59:23.318Z,6.30
2018-12-22T17:01:57.153Z,6.30
2018-12-22T17:04:25.933Z,6.30
2018-12-22T17:06:54.325Z,6.30
2018-12-22T17:09:22.472Z,6.30
2018-12-22T17:11:51.165Z,6.30
2018-12-22T17:14:19.498Z,6.30
2018-12-22T17:16:48.141Z,6.30
2018-12-22T17:19:16.447Z,6.30
2018-12-22T17:22:01.563Z,6.30
2018-12-22T17:24:37.778Z,6.30
2018-12-22T17:27:06.192Z,6.30
2018-12-22T17:29:34.649Z,6.30
2018-12-22T17:32:03.237Z,6.20
2018-12-22T17:34:31.542Z,6.20
2018-12-22T17:37:00.003Z,6.30
2018-12-22T17:39:36.525Z,6.30
2018-12-22T17:41:58.712Z,6.30
2018-12-22T17:44:26.996Z,6.30
2018-12-22T17:46:55.564Z,6.30
2018-12-22T17:49:24.022Z,6.30
2018-12-22T17:51:52.396Z,6.40
2018-12-22T17:54:20.880Z,6.50
2018-12-22T17:56:49.232Z,6.50
2018-12-22T17:59:17.559Z,6.60
2018-12-22T18:01:46.100Z,6.60
2018-12-22T18:04:14.455Z,6.70
2018-12-22T18:06:43.783Z,6.80
2018-12-22T18:09:12.270Z,6.70
2018-12-22T18:11:40.569Z,6.70
2018-12-22T18:14:08.891Z,6.60
2018-12-22T18:16:37.137Z,6.60
2018-12-22T18:19:05.481Z,6.50
2018-12-22T18:21:33.823Z,6.40
2018-12-22T18:24:02.231Z,6.40
2018-12-22T18:26:30.806Z,6.40
2018-12-22T18:28:59.357Z,6.30
2018-12-22T18:31:27.648Z,6.40
2018-12-22T18:33:56.075Z,6.30
2018-12-22T18:36:24.404Z,6.30
2018-12-22T18:38:52.717Z,6.20
2018-12-22T18:41:21.308Z,6.20
2018-12-22T18:43:49.608Z,6.30
2018-12-22T18:46:17.993Z,6.40
2018-12-22T18:48:46.390Z,6.80
2018-12-22T18:51:14.813Z,6.80
2018-12-22T18:53:43.286Z,6.80
2018-12-22T18:56:12.204Z,6.70
2018-12-22T18:58:40.644Z,6.60
2018-12-22T19:01:09.975Z,6.40
2018-12-22T19:03:44.712Z,6.30
2018-12-22T19:06:09.150Z,6.30
2018-12-22T19:08:37.685Z,6.40
2018-12-22T19:11:09.165Z,6.40
2018-12-22T19:13:38.736Z,6.30
2018-12-22T19:16:07.175Z,6.30
2018-12-22T19:18:36.307Z,6.40
2018-12-22T19:21:05.404Z,6.40
2018-12-22T19:23:33.641Z,6.50
2018-12-22T19:26:01.987Z,6.70
2018-12-22T19:28:30.336Z,6.90
2018-12-22T19:30:58.698Z,7.00
2018-12-22T19:33:27.008Z,7.10
2018-12-22T19:35:55.384Z,7.10
2018-12-22T19:38:23.790Z,7.10
2018-12-22T19:40:52.216Z,7.20
2018-12-22T19:43:20.632Z,7.30
2018-12-22T19:45:48.941Z,7.30
2018-12-22T19:48:17.332Z,7.40
2018-12-22T19:50:45.848Z,7.40
2018-12-22T19:53:14.224Z,7.40
2018-12-22T19:55:43.564Z,7.40
2018-12-22T19:58:13.848Z,7.50
2018-12-22T20:00:43.318Z,7.60
2018-12-22T20:03:15.123Z,7.50
2018-12-22T20:05:44.867Z,7.50
2018-12-22T20:08:15.195Z,7.40
2018-12-22T20:10:45.223Z,7.40
2018-12-22T20:13:15.085Z,7.40
2018-12-22T20:15:45.109Z,7.40
2018-12-22T20:18:13.629Z,7.50
2018-12-22T20:20:42.338Z,7.50
2018-12-22T20:23:10.953Z,7.40
2018-12-22T20:25:39.858Z,7.60
2018-12-22T20:28:08.511Z,7.60
2018-12-22T20:30:37.010Z,7.60
2018-12-22T20:33:06.537Z,7.50
2018-12-22T20:35:36.417Z,7.60
2018-12-22T20:38:04.767Z,7.60
2018-12-22T20:40:33.420Z,7.60
2018-12-22T20:43:02.006Z,7.60
2018-12-22T20:45:30.317Z,7.60
2018-12-22T20:47:58.671Z,7.60
2018-12-22T20:50:27.172Z,7.60
2018-12-22T20:52:55.628Z,7.50
2018-12-22T20:55:24.103Z,7.50
2018-12-22T20:57:52.584Z,7.50
2018-12-22T21:00:23.261Z,7.50
2018-12-22T21:02:52.098Z,7.50
2018-12-22T21:05:22.210Z,7.50
2018-12-22T21:07:53.153Z,7.50
2018-12-22T21:10:22.743Z,7.60
2018-12-22T21:13:18.181Z,7.60
2018-12-22T21:15:46.883Z,7.70
2018-12-22T21:18:15.191Z,7.70
2018-12-22T21:20:43.543Z,7.60
2018-12-22T21:23:12.032Z,7.60
2018-12-22T21:25:40.461Z,7.50
2018-12-22T21:28:09.169Z,7.50
2018-12-22T21:30:37.651Z,7.50
2018-12-22T21:33:08.378Z,7.50
2018-12-22T21:35:38.103Z,7.60
2018-12-22T21:38:06.556Z,7.60
2018-12-22T21:40:40.091Z,7.60
2018-12-22T21:43:08.446Z,7.60
2018-12-22T21:45:36.841Z,7.60
2018-12-22T21:48:05.286Z,7.70
2018-12-22T21:50:33.580Z,7.60
2018-12-22T21:53:01.823Z,7.50
2018-12-22T21:55:30.169Z,7.40
2018-12-22T21:57:58.441Z,7.40
2018-12-22T22:00:26.699Z,7.40
2018-12-22T22:02:57.202Z,7.40
2018-12-22T22:05:28.486Z,7.40
2018-12-22T22:07:56.749Z,7.60
2018-12-22T22:10:25.669Z,7.60
2018-12-22T22:12:53.862Z,7.60
2018-12-22T22:15:22.110Z,7.60
2018-12-22T22:17:50.411Z,7.60
2018-12-22T22:20:18.746Z,7.70
2018-12-22T22:22:47.391Z,7.70
2018-12-22T22:25:15.703Z,7.80
2018-12-22T22:27:44.492Z,7.80
2018-12-22T22:30:13.007Z,7.80
2018-12-22T22:32:41.540Z,7.80
2018-12-22T22:35:09.938Z,7.80
2018-12-22T22:37:38.933Z,7.70
2018-12-22T22:40:07.309Z,7.70
2018-12-22T22:42:35.993Z,7.90
2018-12-22T22:45:04.623Z,7.90
2018-12-22T22:47:32.892Z,7.80
2018-12-22T22:50:01.174Z,7.90
2018-12-22T22:52:29.474Z,7.90
2018-12-22T22:54:57.798Z,7.90
2018-12-22T22:57:26.093Z,8.00
2018-12-22T22:59:54.389Z,8.00
2018-12-22T23:02:22.663Z,8.00
2018-12-22T23:04:54.596Z,8.00
2018-12-22T23:07:21.355Z,8.00
2018-12-22T23:09:49.970Z,8.00
2018-12-22T23:12:18.190Z,8.00
2018-12-22T23:14:46.693Z,7.90
2018-12-22T23:17:14.954Z,7.90
2018-12-22T23:19:43.439Z,7.90
2018-12-22T23:22:11.815Z,7.90
2018-12-22T23:24:40.293Z,7.90
2018-12-22T23:27:08.738Z,7.90
2018-12-22T23:29:37.138Z,7.80
2018-12-22T23:32:05.500Z,7.80
2018-12-22T23:34:35.319Z,7.80
2018-12-22T23:37:03.592Z,7.90
2018-12-22T23:39:31.950Z,7.80
2018-12-22T23:42:00.294Z,7.80
2018-12-22T23:44:28.608Z,7.90
2018-12-22T23:46:57.228Z,7.90
2018-12-22T23:49:25.494Z,7.90
2018-12-22T23:51:54.064Z,8.00
2018-12-22T23:54:22.176Z,8.00
2018-12-22T23:56:50.486Z,8.00
2018-12-22T23:59:18.821Z,8.00
